createdAt,value
2019-02-06T00:01:42.183Z,6.53
2019-02-06T00:04:11.406Z,7.43
2019-02-06T00:06:40.301Z,8.23
2019-02-06T00:09:13.274Z,8.57
2019-02-06T00:11:42.238Z,6.93
2019-02-06T00:14:11.042Z,5.70
2019-02-06T00:16:39.937Z,7.57
2019-02-06T00:19:08.947Z,7.60
2019-02-06T00:21:38.129Z,8.80
2019-02-06T00:24:07.094Z,11.17
2019-02-06T00:26:35.978Z,7.50
2019-02-06T00:29:04.948Z,8.03
2019-02-06T00:31:33.841Z,8.00
2019-02-06T00:34:02.754Z,7.33
2019-02-06T00:36:32.101Z,8.33
2019-02-06T00:39:00.923Z,7.57
2019-02-06T00:41:29.885Z,6.93
2019-02-06T00:43:58.773Z,9.53
2019-02-06T00:46:27.726Z,6.97
2019-02-06T00:48:56.593Z,8.00
2019-02-06T00:51:25.559Z,6.10
2019-02-06T00:53:54.449Z,9.43
2019-02-06T00:56:23.322Z,6.40
2019-02-06T00:58:52.277Z,6.77
2019-02-06T01:01:21.160Z,7.43
2019-02-06T01:03:50.119Z,7.93
2019-02-06T01:06:19.063Z,8.00
2019-02-06T01:08:48.045Z,6.70
2019-02-06T01:11:16.922Z,7.30
2019-02-06T01:13:45.886Z,6.50
2019-02-06T01:16:14.757Z,7.37
2019-02-06T01:18:43.582Z,7.40
2019-02-06T01:21:12.546Z,7.07
2019-02-06T01:23:41.877Z,6.27
2019-02-06T01:26:10.934Z,6.60
2019-02-06T01:28:39.817Z,7.03
2019-02-06T01:31:16.106Z,7.40
2019-02-06T01:33:44.999Z,6.93
2019-02-06T01:36:13.889Z,6.27
2019-02-06T01:38:43.071Z,6.90
2019-02-06T01:41:12.023Z,6.70
2019-02-06T01:43:40.986Z,6.93
2019-02-06T01:46:09.946Z,6.50
2019-02-06T01:48:38.845Z,6.67
2019-02-06T01:51:07.726Z,7.00
2019-02-06T01:53:36.677Z,7.77
2019-02-06T01:56:06.811Z,8.33
2019-02-06T01:58:35.681Z,6.73
2019-02-06T02:01:05.427Z,6.40
2019-02-06T04:58:23.986Z,6.20
2019-02-06T05:00:52.861Z,6.00
2019-02-06T05:03:21.733Z,6.00
2019-02-06T05:05:50.936Z,6.97
2019-02-06T05:08:19.913Z,5.80
2019-02-06T05:10:48.718Z,6.97
2019-02-06T05:13:17.626Z,5.63
2019-02-06T05:15:46.504Z,7.03
2019-02-06T05:18:15.462Z,5.70
2019-02-06T05:20:44.334Z,6.70
2019-02-06T05:23:13.240Z,5.60
2019-02-06T05:25:42.178Z,6.10
2019-02-06T05:28:11.148Z,6.80
2019-02-06T05:30:40.033Z,6.60
2019-02-06T05:33:08.832Z,7.07
2019-02-06T05:35:37.722Z,6.77
2019-02-06T05:38:06.882Z,7.73
2019-02-06T05:40:35.797Z,6.63
2019-02-06T05:43:04.781Z,7.87
2019-02-06T05:45:33.671Z,6.93
2019-02-06T05:48:02.477Z,8.00
2019-02-06T05:50:31.273Z,7.60
2019-02-06T05:53:00.286Z,7.50
2019-02-06T05:55:29.464Z,9.53
2019-02-06T05:57:58.263Z,7.33
2019-02-06T06:00:32.327Z,8.30
2019-02-06T06:03:01.202Z,7.20
2019-02-06T06:05:30.082Z,8.10
2019-02-06T06:07:58.956Z,7.50
2019-02-06T06:10:28.040Z,5.97
2019-02-06T06:12:56.992Z,7.70
2019-02-06T06:15:25.798Z,9.03
2019-02-06T06:17:54.779Z,8.13
2019-02-06T06:20:23.707Z,7.17
2019-02-06T06:22:52.501Z,8.27
2019-02-06T06:25:21.593Z,7.70
2019-02-06T06:27:50.719Z,9.20
2019-02-06T06:30:20.151Z,6.20
2019-02-06T06:32:50.523Z,6.57
2019-02-06T06:35:19.463Z,8.00
2019-02-06T06:37:57.490Z,8.07
2019-02-06T06:40:20.787Z,6.80
2019-02-06T06:42:49.847Z,7.20
2019-02-06T06:45:20.505Z,7.10
2019-02-06T06:47:49.462Z,7.10
2019-02-06T06:50:20.223Z,8.17
2019-02-06T06:52:49.021Z,7.77
2019-02-06T06:55:17.917Z,7.27
2019-02-06T06:57:47.145Z,7.27
2019-02-06T07:00:21.013Z,5.70
2019-02-06T07:02:49.961Z,7.47
2019-02-06T07:05:18.942Z,7.63
2019-02-06T07:07:47.946Z,6.20
2019-02-06T07:10:16.941Z,8.70
2019-02-06T07:12:45.812Z,8.20
2019-02-06T07:15:17.512Z,6.83
2019-02-06T07:17:46.514Z,7.80
2019-02-06T07:20:16.280Z,7.10
2019-02-06T07:22:46.296Z,6.80
2019-02-06T07:25:16.414Z,7.17
2019-02-06T07:27:45.288Z,8.10
2019-02-06T07:30:17.861Z,8.33
2019-02-06T07:32:46.674Z,6.77
2019-02-06T07:35:15.545Z,6.47
2019-02-06T07:37:44.513Z,9.93
2019-02-06T07:40:14.465Z,7.90
2019-02-06T07:42:43.409Z,7.63
2019-02-06T07:45:12.887Z,7.20
2019-02-06T07:47:41.757Z,6.57
2019-02-06T07:50:14.553Z,8.90
2019-02-06T07:52:43.514Z,7.87
2019-02-06T07:55:12.778Z,7.30
2019-02-06T07:57:41.676Z,6.73
2019-02-06T08:00:10.811Z,8.10
2019-02-06T08:02:39.874Z,9.87
2019-02-06T08:05:10.698Z,8.70
2019-02-06T08:07:39.585Z,9.17
2019-02-06T08:10:11.303Z,6.37
2019-02-06T08:12:40.249Z,7.83
2019-02-06T08:15:10.163Z,7.53
2019-02-06T08:17:39.138Z,8.43
2019-02-06T08:20:10.084Z,6.80
2019-02-06T08:22:38.877Z,7.03
2019-02-06T08:25:08.262Z,7.73
2019-02-06T08:27:37.141Z,8.47
2019-02-06T08:30:09.303Z,7.57
2019-02-06T08:32:38.125Z,7.43
2019-02-06T08:35:07.755Z,8.00
2019-02-06T08:37:36.697Z,8.80
2019-02-06T08:40:06.677Z,8.77
2019-02-06T08:42:35.478Z,7.73
2019-02-06T08:45:05.326Z,7.27
2019-02-06T08:47:34.282Z,8.23
2019-02-06T08:50:03.226Z,7.17
2019-02-06T08:52:32.102Z,7.60
2019-02-06T08:55:00.910Z,9.33
2019-02-06T08:57:29.789Z,8.27
2019-02-06T08:59:58.587Z,8.20
2019-02-06T09:02:27.398Z,7.90
2019-02-06T09:04:56.481Z,7.80
2019-02-06T09:07:25.353Z,9.50
2019-02-06T09:09:54.389Z,8.27
2019-02-06T09:12:23.627Z,8.17
2019-02-06T09:14:52.591Z,6.73
2019-02-06T09:17:21.461Z,9.07
2019-02-06T09:19:50.345Z,6.47
2019-02-06T09:22:19.137Z,7.10
2019-02-06T09:24:47.946Z,7.63
2019-02-06T09:27:17.355Z,7.60
2019-02-06T09:29:46.185Z,7.03
2019-02-06T09:32:15.069Z,7.23
2019-02-06T09:34:44.306Z,6.80
2019-02-06T09:37:13.262Z,7.13
2019-02-06T09:39:42.134Z,7.17
2019-02-06T09:42:10.938Z,7.63
2019-02-06T09:44:39.989Z,7.00
2019-02-06T09:47:08.803Z,6.13
2019-02-06T09:49:37.686Z,6.93
2019-02-06T09:52:06.719Z,7.40
2019-02-06T09:54:35.686Z,14.57
2019-02-06T09:57:04.649Z,7.30
2019-02-06T09:59:33.898Z,6.43
2019-02-06T10:02:02.774Z,6.30
2019-02-06T10:04:31.590Z,8.57
2019-02-06T10:07:00.461Z,7.40
2019-02-06T10:09:29.355Z,19.00
2019-02-06T10:11:58.391Z,52.83
2019-02-06T10:14:27.213Z,118.90
2019-02-06T10:16:56.395Z,135.43
2019-02-06T10:19:25.293Z,155.83
2019-02-06T10:21:54.170Z,117.93
2019-02-06T10:24:22.989Z,157.50
2019-02-06T10:26:51.869Z,169.30
2019-02-06T10:29:20.855Z,168.33
2019-02-06T10:31:50.018Z,163.83
2019-02-06T10:34:18.960Z,127.67
2019-02-06T10:36:47.838Z,136.50
2019-02-06T10:39:16.747Z,134.77
2019-02-06T10:41:45.822Z,124.23
2019-02-06T10:44:14.719Z,126.47
2019-02-06T10:46:43.666Z,98.13
2019-02-06T10:49:12.473Z,104.37
2019-02-06T10:51:41.370Z,89.27
2019-02-06T10:54:10.249Z,105.87
2019-02-06T10:56:39.133Z,87.97
2019-02-06T10:59:08.095Z,104.60
2019-02-06T11:01:36.917Z,76.47
2019-02-06T11:04:06.230Z,87.23
2019-02-06T11:06:35.137Z,79.47
2019-02-06T11:09:06.090Z,78.67
2019-02-06T11:11:34.910Z,77.47
2019-02-06T11:14:04.210Z,76.13
2019-02-06T11:16:33.094Z,63.50
2019-02-06T11:19:02.317Z,74.27
2019-02-06T11:21:31.210Z,61.80
2019-02-06T11:24:00.088Z,82.53
2019-02-06T11:26:29.034Z,60.83
2019-02-06T11:28:57.937Z,68.70
2019-02-06T11:31:26.742Z,60.90
2019-02-06T11:33:55.815Z,60.67
2019-02-06T11:36:24.761Z,67.30
2019-02-06T11:38:53.670Z,83.87
2019-02-06T11:41:22.562Z,67.27
2019-02-06T11:43:51.449Z,60.23
2019-02-06T11:46:20.339Z,57.63
2019-02-06T11:48:49.166Z,54.70
2019-02-06T11:51:18.537Z,51.83
2019-02-06T11:53:47.418Z,52.53
2019-02-06T11:56:16.382Z,54.50
2019-02-06T11:58:45.266Z,45.77
2019-02-06T12:01:31.534Z,57.23
2019-02-06T12:04:00.413Z,49.87
2019-02-06T12:06:29.315Z,60.30
2019-02-06T12:08:58.126Z,58.73
2019-02-06T12:11:26.957Z,44.37
2019-02-06T12:13:55.837Z,49.23
2019-02-06T12:16:24.814Z,48.03
2019-02-06T12:18:54.022Z,37.83
2019-02-06T12:21:22.913Z,43.43
2019-02-06T12:23:51.869Z,41.33
2019-02-06T12:26:20.769Z,48.77
2019-02-06T12:28:49.577Z,47.67
2019-02-06T12:31:18.469Z,34.70
2019-02-06T12:33:47.298Z,37.43
2019-02-06T12:36:16.190Z,34.13
2019-02-06T12:38:52.989Z,36.43
2019-02-06T12:41:15.774Z,30.87
2019-02-06T12:43:44.725Z,42.20
2019-02-06T12:46:13.617Z,34.37
2019-02-06T12:48:42.494Z,35.20
2019-02-06T12:51:11.581Z,33.60
2019-02-06T12:53:40.933Z,33.13
2019-02-06T12:56:09.811Z,38.43
2019-02-06T12:58:38.617Z,34.07
2019-02-06T13:01:07.765Z,33.30
2019-02-06T13:03:36.735Z,33.20
2019-02-06T13:06:05.718Z,42.23
2019-02-06T13:08:34.554Z,31.27
2019-02-06T13:11:03.505Z,39.77
2019-02-06T13:13:32.474Z,30.53
2019-02-06T13:16:01.286Z,30.67
2019-02-06T13:18:30.094Z,25.10
2019-02-06T13:20:58.994Z,23.83
2019-02-06T13:23:27.817Z,23.93
2019-02-06T13:25:56.962Z,31.10
2019-02-06T13:28:25.833Z,31.63
2019-02-06T13:30:54.772Z,26.20
2019-02-06T13:33:23.737Z,23.33
2019-02-06T13:35:52.626Z,23.80
2019-02-06T13:38:23.216Z,25.23
2019-02-06T13:40:52.269Z,28.33
2019-02-06T13:43:21.090Z,24.63
2019-02-06T13:45:50.045Z,22.17
2019-02-06T13:48:19.006Z,31.73
2019-02-06T13:50:47.973Z,25.00
2019-02-06T13:53:16.867Z,25.00
2019-02-06T13:55:45.764Z,16.60
2019-02-06T13:58:19.951Z,22.83
2019-02-06T14:00:45.405Z,21.57
2019-02-06T14:03:14.406Z,24.90
2019-02-06T14:05:46.743Z,23.13
2019-02-06T14:08:16.084Z,23.90
2019-02-06T14:10:57.071Z,20.83
2019-02-06T14:13:16.185Z,21.27
2019-02-06T14:15:47.005Z,22.93
2019-02-06T14:18:16.064Z,17.57
2019-02-06T14:20:46.411Z,20.03
2019-02-06T14:23:38.913Z,22.60
2019-02-06T14:26:30.386Z,22.60
2019-02-06T14:29:45.108Z,24.77
2019-02-06T14:32:51.042Z,18.60
2019-02-06T14:35:59.380Z,23.67
2019-02-06T14:38:49.729Z,16.57
2019-02-06T14:41:57.698Z,17.60
2019-02-06T14:44:44.446Z,20.20
2019-02-06T14:47:28.302Z,25.03
2019-02-06T14:50:34.230Z,19.63
2019-02-06T14:53:47.282Z,19.87
2019-02-06T14:57:08.942Z,22.40
2019-02-06T15:00:38.070Z,23.50
2019-02-06T15:03:57.149Z,15.47
2019-02-06T15:06:55.547Z,18.97
2019-02-06T15:09:59.903Z,22.33
2019-02-06T15:12:50.662Z,19.90
2019-02-06T15:15:34.503Z,16.77
2019-02-06T15:18:33.818Z,17.80
2019-02-06T15:21:37.353Z,14.23
2019-02-06T15:24:43.246Z,16.90
2019-02-06T15:27:53.496Z,19.63
2019-02-06T15:31:17.742Z,16.30
2019-02-06T15:34:23.456Z,15.10
2019-02-06T15:37:35.362Z,16.60
2019-02-06T15:40:31.614Z,17.40
2019-02-06T15:43:49.106Z,11.30
2019-02-06T15:47:09.677Z,19.90
2019-02-06T15:49:58.622Z,15.60
2019-02-06T15:52:59.701Z,13.83
2019-02-06T15:55:51.841Z,15.60
2019-02-06T15:58:48.382Z,16.80
2019-02-06T16:01:29.873Z,14.60
2019-02-06T16:04:56.737Z,15.83
2019-02-06T16:08:14.674Z,14.13
2019-02-06T16:11:25.399Z,16.13
2019-02-06T16:14:27.870Z,12.60
2019-02-06T16:17:26.597Z,16.10
2019-02-06T16:20:07.830Z,12.43
2019-02-06T16:23:08.242Z,13.33
2019-02-06T16:26:10.739Z,11.93
2019-02-06T16:29:04.557Z,10.73
2019-02-06T16:32:10.757Z,12.87
2019-02-06T16:34:52.362Z,14.43
2019-02-06T16:37:51.236Z,10.00
2019-02-06T16:40:53.550Z,14.13
2019-02-06T16:43:47.922Z,12.40
2019-02-06T16:46:53.834Z,13.30
2019-02-06T16:49:35.141Z,13.60
2019-02-06T16:52:32.962Z,14.83
2019-02-06T16:55:37.462Z,11.70
2019-02-06T16:58:47.798Z,15.50
2019-02-06T17:01:59.471Z,16.90
2019-02-06T17:04:45.325Z,12.90
2019-02-06T17:07:48.281Z,10.20
2019-02-06T17:10:47.546Z,17.33
2019-02-06T17:13:39.313Z,10.13
2019-02-06T17:16:22.862Z,16.40
2019-02-06T17:19:04.502Z,14.10
2019-02-06T17:22:05.033Z,15.47
2019-02-06T17:25:06.870Z,13.23
2019-02-06T17:28:00.643Z,12.90
2019-02-06T17:31:05.163Z,12.33
2019-02-06T17:34:26.010Z,13.50
2019-02-06T17:37:02.863Z,11.60
2019-02-06T17:40:09.557Z,10.90
2019-02-06T17:43:14.742Z,13.93
2019-02-06T17:46:15.149Z,15.03
2019-02-06T17:49:06.994Z,11.07
2019-02-06T17:52:23.222Z,9.97
2019-02-06T17:55:20.807Z,11.73
2019-02-06T17:57:51.717Z,18.53
2019-02-06T18:00:41.658Z,11.37
2019-02-06T18:03:12.097Z,11.57
2019-02-06T18:05:40.978Z,13.07
2019-02-06T18:08:09.949Z,16.20
2019-02-06T18:10:38.891Z,11.77
2019-02-06T18:13:08.002Z,11.23
2019-02-06T18:15:36.881Z,13.47
2019-02-06T18:18:06.111Z,11.30
2019-02-06T18:20:35.049Z,12.63
2019-02-06T18:23:04.202Z,14.50
2019-02-06T18:25:33.164Z,12.00
2019-02-06T18:28:02.126Z,11.23
2019-02-06T18:30:31.425Z,11.43
2019-02-06T18:33:00.495Z,9.47
2019-02-06T18:35:29.454Z,9.50
2019-02-06T18:37:58.617Z,11.33
2019-02-06T18:40:27.874Z,13.63
2019-02-06T18:42:57.408Z,12.43
2019-02-06T18:45:27.889Z,14.70
2019-02-06T18:47:58.589Z,19.50
2019-02-06T18:50:27.945Z,11.50
2019-02-06T18:52:57.294Z,14.37
2019-02-06T18:55:26.322Z,13.90
2019-02-06T18:57:55.550Z,15.53
2019-02-06T19:00:32.123Z,13.23
2019-02-06T19:03:00.689Z,13.30
2019-02-06T19:05:32.671Z,12.60
2019-02-06T19:08:01.681Z,12.23
2019-02-06T19:10:30.681Z,14.57
2019-02-06T19:12:59.744Z,10.73
2019-02-06T19:15:29.089Z,14.77
2019-02-06T19:17:57.986Z,10.80
2019-02-06T19:20:26.938Z,14.23
2019-02-06T19:22:55.910Z,12.20
2019-02-06T19:25:24.784Z,22.80
2019-02-06T19:27:56.240Z,11.80
2019-02-06T19:30:27.427Z,11.43
2019-02-06T19:32:56.605Z,12.63
2019-02-06T19:35:25.493Z,13.40
2019-02-06T19:37:54.329Z,15.20
2019-02-06T19:43:50.810Z,12.70
2019-02-06T19:46:20.633Z,12.33
2019-02-06T19:48:50.308Z,12.40
2019-02-06T19:51:19.964Z,13.97
2019-02-06T19:53:49.863Z,11.87
2019-02-06T19:56:19.496Z,13.97
2019-02-06T19:58:49.266Z,12.73
2019-02-06T20:01:18.949Z,12.80
2019-02-06T20:03:48.581Z,12.80
2019-02-06T20:06:31.139Z,11.90
2019-02-06T20:09:04.758Z,11.07
2019-02-06T20:11:34.339Z,9.90
2019-02-06T20:14:03.948Z,9.27
2019-02-06T20:16:33.785Z,19.23
2019-02-06T20:19:03.465Z,12.80
2019-02-06T20:21:33.404Z,10.60
2019-02-06T20:24:03.376Z,9.67
2019-02-06T20:26:33.103Z,12.33
2019-02-06T20:29:02.489Z,14.43
2019-02-06T20:31:31.640Z,12.20
2019-02-06T20:34:00.585Z,13.30
2019-02-06T20:36:29.459Z,11.50
2019-02-06T20:38:58.359Z,10.17
2019-02-06T20:41:27.573Z,12.47
2019-02-06T20:43:56.474Z,13.60
2019-02-06T20:46:25.436Z,12.93
2019-02-06T20:48:54.250Z,10.60
2019-02-06T20:51:23.065Z,10.27
2019-02-06T20:53:51.875Z,9.80
2019-02-06T20:56:20.682Z,14.80
2019-02-06T20:58:50.026Z,11.50
2019-02-06T21:01:18.858Z,11.83
2019-02-06T21:03:47.919Z,15.10
2019-02-06T21:06:16.782Z,10.90
2019-02-06T21:08:45.598Z,10.37
2019-02-06T21:11:14.414Z,11.97
2019-02-06T21:13:43.311Z,11.13
2019-02-06T21:16:12.186Z,11.40
2019-02-06T21:18:40.989Z,12.53
2019-02-06T21:21:09.805Z,14.00
2019-02-06T21:23:38.753Z,11.13
2019-02-06T21:26:07.724Z,11.60
2019-02-06T21:28:36.603Z,14.10
2019-02-06T21:31:05.686Z,13.50
2019-02-06T21:33:34.574Z,13.30
2019-02-06T21:36:03.521Z,10.73
2019-02-06T21:38:32.486Z,10.20
2019-02-06T21:41:01.362Z,14.17
2019-02-06T21:43:30.261Z,10.20
2019-02-06T21:46:00.122Z,11.83
2019-02-06T21:48:29.679Z,10.13
2019-02-06T21:50:59.231Z,11.60
2019-02-06T21:53:29.064Z,12.03
2019-02-06T21:55:58.321Z,9.40
2019-02-06T21:58:28.170Z,8.83
2019-02-06T22:00:57.507Z,11.90
2019-02-06T22:03:26.895Z,10.10
2019-02-06T22:05:55.761Z,12.07
2019-02-06T22:08:24.637Z,9.97
2019-02-06T22:10:53.530Z,10.37
2019-02-06T22:13:22.406Z,10.63
2019-02-06T22:15:51.754Z,9.87
2019-02-06T22:18:20.637Z,12.40
2019-02-06T22:20:49.522Z,9.17
2019-02-06T22:23:18.414Z,9.07
2019-02-06T22:25:47.281Z,9.80
2019-02-06T22:28:16.094Z,8.90
2019-02-06T22:30:45.045Z,11.00
2019-02-06T22:33:13.862Z,11.53
2019-02-06T22:35:42.737Z,9.77
2019-02-06T22:38:11.615Z,9.00
2019-02-06T22:40:40.413Z,9.60
2019-02-06T22:43:09.213Z,8.90
2019-02-06T22:45:38.273Z,8.83
2019-02-06T22:48:07.166Z,9.13
2019-02-06T22:50:36.115Z,10.93
2019-02-06T22:53:05.192Z,10.60
2019-02-06T22:55:34.134Z,11.33
2019-02-06T22:58:03.002Z,8.90
2019-02-06T23:00:56.605Z,9.73
2019-02-06T23:03:37.450Z,9.20
2019-02-06T23:06:08.083Z,9.80
2019-02-06T23:08:37.041Z,8.47
2019-02-06T23:11:06.293Z,11.37
2019-02-06T23:13:35.093Z,7.80
2019-02-06T23:16:04.497Z,8.13
2019-02-06T23:18:33.452Z,8.50
2019-02-06T23:21:02.410Z,9.30
2019-02-06T23:23:31.285Z,10.70
2019-02-06T23:26:00.243Z,7.60
2019-02-06T23:28:29.287Z,8.60
2019-02-06T23:30:58.269Z,8.30
2019-02-06T23:33:27.149Z,8.60
2019-02-06T23:35:56.106Z,9.80
2019-02-06T23:38:25.053Z,7.57
2019-02-06T23:40:53.923Z,9.43
2019-02-06T23:43:22.806Z,8.27
2019-02-06T23:45:51.753Z,8.17
2019-02-06T23:48:20.897Z,9.13
2019-02-06T23:50:49.785Z,7.37
2019-02-06T23:53:18.674Z,10.40
2019-02-06T23:55:47.721Z,11.30
2019-02-06T23:58:16.605Z,9.10
